Time;durP1;ratioP1;P1;durP2;ratioP2;P2;SDS_P1;SDS_P2;PMS_P1;PMS_P2;Temp;Humidity;BMP_temperature;BMP_pressure;BME280_temperature;BME280_humidity;BME280_pressure;Samples;Min_cycle;Max_cycle;Signal;HPM_P1;HPM_P2
2021/09/30 00:00:59;;;;;;;18.23;9.20;;;;;;;5.48;81.85;101566.39;1775940;81;21212;-78
2021/09/30 00:04:06;;;;;;;15.60;9.60;;;;;;;5.47;82.16;101570.09;1777159;81;21176;-77
2021/09/30 00:07:11;;;;;;;15.83;8.88;;;;;;;5.47;82.34;101567.86;1776585;81;21287;-78
2021/09/30 00:10:22;;;;;;;16.70;8.25;;;;;;;5.45;82.32;101565.23;1776525;81;21283;-77
2021/09/30 00:13:44;;;;;;;14.40;8.10;;;;;;;5.43;82.21;101571.78;1777430;81;21203;-77
2021/09/30 00:16:59;;;;;;;13.93;8.20;;;;;;;5.39;82.14;101571.12;1777706;81;21291;-77
2021/09/30 00:39:56;;;;;;;14.10;8.85;;;;;;;5.13;83.19;101568.48;1776587;81;21654;-77
2021/09/30 00:46:10;;;;;;;13.15;7.80;;;;;;;5.10;83.29;101563.76;1775100;81;21219;-77
2021/09/30 00:50:04;;;;;;;13.05;8.45;;;;;;;5.07;83.39;101566.19;1775498;80;21731;-77
2021/09/30 00:52:45;;;;;;;15.72;8.20;;;;;;;5.07;83.63;101569.39;1777755;79;21350;-77
2021/09/30 01:45:40;;;;;;;17.10;9.68;;;;;;;4.72;85.04;101575.48;1765277;81;21464;-77
2021/09/30 02:24:23;;;;;;;12.95;8.80;;;;;;;4.32;86.91;101581.44;1777593;80;21266;-77
2021/09/30 03:01:17;;;;;;;13.70;8.45;;;;;;;3.97;86.12;101586.55;1729995;82;21794;-78
2021/09/30 03:04:24;;;;;;;16.62;9.93;;;;;;;3.91;86.08;101589.68;1748106;82;21350;-78
2021/09/30 03:07:29;;;;;;;16.37;9.45;;;;;;;3.88;86.23;101587.16;1748743;82;21188;-78
2021/09/30 03:10:36;;;;;;;11.83;7.80;;;;;;;3.87;86.38;101589.49;1748806;82;21886;-78
2021/09/30 03:13:42;;;;;;;12.28;8.78;;;;;;;3.84;86.45;101592.77;1748073;82;21326;-78
2021/09/30 03:16:48;;;;;;;13.40;8.28;;;;;;;3.82;86.61;101593.37;1748709;82;21286;-78
2021/09/30 03:20:03;;;;;;;13.00;8.13;;;;;;;3.82;86.88;101592.02;1747174;82;21222;-79
2021/09/30 03:23:15;;;;;;;15.55;8.90;;;;;;;3.81;87.11;101590.29;1747601;82;21226;-78
2021/09/30 03:26:25;;;;;;;15.60;9.43;;;;;;;3.84;87.37;101596.83;1746851;82;21599;-78
2021/09/30 03:29:31;;;;;;;15.28;9.50;;;;;;;3.84;87.40;101596.83;1739181;82;21310;-78
2021/09/30 03:32:37;;;;;;;17.37;9.28;;;;;;;3.83;87.41;101597.80;1745812;82;21283;-77
2021/09/30 03:35:46;;;;;;;15.85;9.03;;;;;;;3.81;87.62;101599.77;1745783;82;21192;-78
2021/09/30 03:38:54;;;;;;;15.00;8.30;;;;;;;3.82;87.83;101597.43;1745901;82;21184;-78
2021/09/30 03:41:59;;;;;;;14.18;8.68;;;;;;;3.85;88.11;101597.20;1746814;82;21132;-77
2021/09/30 03:45:06;;;;;;;15.18;9.13;;;;;;;3.88;88.26;101602.05;1746357;82;21184;-78
2021/09/30 03:48:14;;;;;;;17.45;9.10;;;;;;;3.89;88.30;101603.30;1744367;82;21243;-78
2021/09/30 03:51:52;;;;;;;17.45;8.98;;;;;;;3.91;88.27;101605.92;1745907;82;21287;-78
2021/09/30 04:01:01;;;;;;;21.23;9.23;;;;;;;3.97;88.19;101610.92;1783697;79;21149;-78
2021/09/30 04:04:07;;;;;;;14.35;7.85;;;;;;;4.02;88.23;101611.47;1785756;80;21251;-78
2021/09/30 04:07:14;;;;;;;14.58;9.33;;;;;;;4.10;88.27;101614.55;1784649;80;21319;-77
2021/09/30 04:10:19;;;;;;;17.23;9.03;;;;;;;4.14;88.15;101616.08;1754524;82;21339;-77
2021/09/30 04:13:24;;;;;;;17.12;9.33;;;;;;;4.18;87.99;101620.29;1753719;82;21939;-77
2021/09/30 04:16:32;;;;;;;12.82;8.38;;;;;;;4.22;87.92;101617.77;1752057;81;21210;-78
2021/09/30 04:19:36;;;;;;;14.28;9.73;;;;;;;4.26;87.77;101622.50;1768980;80;21346;-78
2021/09/30 04:22:43;;;;;;;18.20;8.98;;;;;;;4.31;87.78;101622.56;1772096;80;21851;-78
2021/09/30 04:25:49;;;;;;;16.85;8.83;;;;;;;4.41;87.76;101620.58;1783226;80;21176;-79
2021/09/30 04:28:55;;;;;;;16.57;8.73;;;;;;;4.48;87.59;101621.91;1784514;80;22546;-79
2021/09/30 04:32:00;;;;;;;15.78;8.68;;;;;;;4.56;87.46;101626.30;1782318;80;21273;-76
2021/09/30 04:35:06;;;;;;;16.00;8.88;;;;;;;4.65;87.41;101632.44;1783609;80;21906;-78
2021/09/30 04:38:19;;;;;;;22.22;9.85;;;;;;;4.72;87.29;101630.19;1783031;80;21271;-79
2021/09/30 04:41:24;;;;;;;10.78;7.65;;;;;;;4.80;87.16;101635.95;1779804;80;21828;-79
2021/09/30 04:44:32;;;;;;;11.20;7.55;;;;;;;4.86;86.90;101635.02;1772399;80;21215;-79
2021/09/30 04:47:38;;;;;;;16.00;9.23;;;;;;;4.91;86.70;101632.48;1778607;80;21327;-79
2021/09/30 04:50:45;;;;;;;12.98;8.38;;;;;;;4.96;86.61;101631.17;1783634;80;21264;-78
2021/09/30 04:53:53;;;;;;;13.30;8.25;;;;;;;5.05;86.62;101635.95;1768786;79;21263;-79
2021/09/30 04:56:58;;;;;;;11.40;8.30;;;;;;;5.15;86.52;101634.81;1780883;80;21891;-78
2021/09/30 05:00:03;;;;;;;13.70;8.08;;;;;;;5.24;86.19;101640.08;1775096;81;21374;-79
2021/09/30 05:03:11;;;;;;;12.82;8.10;;;;;;;5.34;85.98;101642.01;1773900;81;22059;-79
2021/09/30 05:06:18;;;;;;;29.48;10.60;;;;;;;5.44;85.78;101646.77;1755332;81;21218;-79
2021/09/30 05:09:27;;;;;;;18.12;8.80;;;;;;;5.55;85.56;101650.92;1769264;79;21262;-79
2021/09/30 05:12:34;;;;;;;24.32;10.38;;;;;;;5.64;84.37;101657.05;1773335;80;21247;-79
2021/09/30 05:15:39;;;;;;;13.22;8.10;;;;;;;5.71;83.73;101661.06;1776390;81;21274;-78
2021/09/30 05:19:05;;;;;;;16.37;8.00;;;;;;;5.80;83.42;101653.59;1750120;81;21197;-80
2021/09/30 05:22:10;;;;;;;12.53;7.37;;;;;;;5.94;83.15;101669.41;1764204;79;22172;-78
2021/09/30 05:25:14;;;;;;;20.77;7.78;;;;;;;6.07;82.79;101664.77;1762984;79;21341;-78
2021/09/30 05:28:19;;;;;;;14.68;7.92;;;;;;;6.18;81.72;101663.99;1759163;81;22295;-77
2021/09/30 05:31:24;;;;;;;14.95;8.28;;;;;;;6.26;81.32;101663.80;1759463;79;21287;-78
2021/09/30 05:34:34;;;;;;;15.85;7.08;;;;;;;6.37;80.49;101671.99;1720960;79;21172;-78
2021/09/30 05:37:39;;;;;;;17.85;7.92;;;;;;;6.48;79.39;101663.51;1701218;83;21291;-77
2021/09/30 05:40:48;;;;;;;13.45;7.70;;;;;;;6.55;78.06;101671.59;1704905;83;21276;-80
2021/09/30 05:43:57;;;;;;;11.03;6.55;;;;;;;6.62;77.80;101657.88;1702159;83;21209;-77
2021/09/30 05:47:00;;;;;;;13.83;6.40;;;;;;;6.74;76.91;101662.88;1709566;83;21273;-78
2021/09/30 05:50:07;;;;;;;10.45;6.70;;;;;;;6.81;75.49;101673.15;1705610;83;21154;-79
2021/09/30 05:53:15;;;;;;;11.63;7.17;;;;;;;6.89;74.48;101665.77;1716215;82;21323;-79
2021/09/30 05:56:28;;;;;;;11.73;6.53;;;;;;;6.97;74.54;101667.40;1719050;83;21304;-80
2021/09/30 05:59:34;;;;;;;12.95;7.33;;;;;;;7.11;74.40;101667.67;1727412;81;21822;-80
2021/09/30 06:10:11;;;;;;;14.53;6.12;;;;;;;7.43;71.90;101689.12;1733161;82;21216;-80
2021/09/30 06:13:05;;;;;;;6.95;4.97;;;;;;;7.51;70.15;101686.27;1730904;81;21273;-79
2021/09/30 06:16:12;;;;;;;13.62;6.08;;;;;;;7.60;69.61;101690.97;1722376;81;21202;-79
2021/09/30 06:19:20;;;;;;;12.53;6.42;;;;;;;7.69;69.72;101687.02;1738772;81;21274;-81
2021/09/30 06:22:26;;;;;;;8.70;5.60;;;;;;;7.83;69.37;101683.66;1735112;81;21307;-79
2021/09/30 06:25:31;;;;;;;14.28;5.60;;;;;;;7.97;68.11;101683.91;1712452;82;21157;-79
2021/09/30 06:28:38;;;;;;;14.28;5.97;;;;;;;8.11;67.28;101683.63;1726801;82;22153;-78
2021/09/30 06:31:43;;;;;;;11.48;6.33;;;;;;;8.23;66.60;101689.41;1725964;81;21315;-78
2021/09/30 06:34:53;;;;;;;;;;;;;;;8.35;66.20;101695.20;1728943;82;21176;-79
2021/09/30 06:38:01;;;;;;;13.05;5.42;;;;;;;8.49;64.65;101689.13;1729778;82;20308;-78
2021/09/30 06:41:09;;;;;;;6.85;5.15;;;;;;;8.59;63.34;101683.27;1732126;82;21872;-78
2021/09/30 06:44:16;;;;;;;12.68;5.33;;;;;;;8.70;62.44;101695.02;1725024;82;21166;-78
2021/09/30 06:47:23;;;;;;;8.10;4.53;;;;;;;8.77;61.92;101687.16;1707250;82;21296;-80
2021/09/30 06:50:31;;;;;;;6.67;4.10;;;;;;;8.90;61.40;101689.20;1709513;83;21278;-78
2021/09/30 06:53:40;;;;;;;7.60;4.03;;;;;;;9.05;60.18;101682.05;1710088;83;21276;-78
2021/09/30 06:56:53;;;;;;;6.33;4.00;;;;;;;9.15;58.69;101684.34;1715994;82;21156;-78
2021/09/30 07:00:08;;;;;;;9.33;4.03;;;;;;;9.27;58.65;101687.85;1741278;82;21416;-78
2021/09/30 07:03:34;;;;;;;10.90;4.03;;;;;;;9.36;57.88;101704.33;1720401;82;21269;-79
2021/09/30 07:06:41;;;;;;;9.50;3.90;;;;;;;9.40;56.47;101697.56;1723044;82;22700;-79
2021/09/30 07:09:48;;;;;;;4.33;3.25;;;;;;;9.47;56.37;101708.33;1726942;82;21201;-79
2021/09/30 07:12:56;;;;;;;6.72;3.95;;;;;;;9.52;55.29;101690.67;1725762;82;21205;-79
2021/09/30 07:16:02;;;;;;;5.58;3.83;;;;;;;9.56;56.18;101684.80;1722882;82;21269;-79
2021/09/30 07:19:08;;;;;;;9.50;4.03;;;;;;;9.63;55.03;101695.53;1741012;81;21161;-78
2021/09/30 07:22:14;;;;;;;7.58;2.98;;;;;;;9.75;55.09;101691.36;1722223;83;21242;-78
2021/09/30 07:25:24;;;;;;;6.85;3.55;;;;;;;9.86;53.67;101686.64;1715072;83;21701;-78
2021/09/30 07:28:28;;;;;;;10.00;3.60;;;;;;;9.99;54.35;101695.97;1724093;83;21797;-78
2021/09/30 07:31:36;;;;;;;9.90;3.20;;;;;;;10.09;52.67;101682.33;1715466;82;21148;-78
2021/09/30 07:34:41;;;;;;;6.75;3.27;;;;;;;10.17;52.12;101682.00;1737501;82;21279;-78
2021/09/30 07:37:46;;;;;;;5.95;3.30;;;;;;;10.26;51.05;101690.38;1717953;83;21792;-78
2021/09/30 07:40:51;;;;;;;3.47;2.92;;;;;;;10.27;50.06;101683.41;1711907;83;21252;-78
2021/09/30 07:43:56;;;;;;;5.55;3.02;;;;;;;10.26;51.43;101684.43;1702976;83;21851;-79
2021/09/30 07:47:01;;;;;;;3.65;2.72;;;;;;;10.32;49.22;101682.99;1715225;83;21256;-79
2021/09/30 07:50:06;;;;;;;5.40;3.85;;;;;;;10.32;48.77;101679.75;1706421;83;21273;-79
2021/09/30 07:53:14;;;;;;;14.07;3.37;;;;;;;10.27;48.88;101671.61;1706716;83;22156;-78
2021/09/30 07:56:19;;;;;;;5.67;2.85;;;;;;;10.27;48.88;101671.11;1723827;82;21265;-78
2021/09/30 07:59:23;;;;;;;7.40;3.85;;;;;;;10.34;48.25;101673.63;1723907;81;21275;-77
2021/09/30 08:02:29;;;;;;;3.35;2.90;;;;;;;10.35;48.40;101679.95;1717450;82;21757;-78
2021/09/30 08:05:35;;;;;;;9.63;4.22;;;;;;;10.41;48.94;101672.06;1714757;82;21279;-78
2021/09/30 08:08:40;;;;;;;7.35;3.25;;;;;;;10.56;47.92;101673.02;1761795;79;21265;-79
2021/09/30 08:11:45;;;;;;;4.80;2.60;;;;;;;10.65;47.52;101673.52;1760838;80;21784;-78
2021/09/30 08:14:52;;;;;;;5.40;3.47;;;;;;;10.70;47.81;101676.69;1759160;79;22935;-78
2021/09/30 08:17:58;;;;;;;7.40;2.77;;;;;;;10.72;47.24;101670.55;1758965;79;21252;-78
2021/09/30 08:21:04;;;;;;;5.72;2.77;;;;;;;10.70;47.77;101675.32;1762446;79;21244;-78
2021/09/30 08:24:09;;;;;;;4.90;2.70;;;;;;;10.77;47.29;101657.30;1760981;81;21303;-78
2021/09/30 08:27:14;;;;;;;5.20;3.00;;;;;;;10.80;46.85;101663.00;1761437;79;21197;-78
2021/09/30 08:30:20;;;;;;;5.45;3.00;;;;;;;10.86;46.78;101667.37;1758679;79;21451;-78
2021/09/30 08:33:25;;;;;;;4.33;3.08;;;;;;;10.84;47.26;101652.98;1761118;79;21272;-79
2021/09/30 08:36:31;;;;;;;6.05;3.22;;;;;;;10.91;47.62;101667.80;1758589;79;21284;-77
2021/09/30 08:39:37;;;;;;;6.55;3.83;;;;;;;10.96;46.92;101660.52;1765449;79;21338;-78
2021/09/30 08:42:44;;;;;;;5.83;3.17;;;;;;;11.04;47.25;101651.59;1767306;79;22294;-78
2021/09/30 08:45:51;;;;;;;6.00;3.10;;;;;;;11.09;47.33;101657.48;1762192;79;21303;-79
2021/09/30 08:49:01;;;;;;;5.50;2.98;;;;;;;11.15;45.44;101666.00;1764078;79;21625;-80
2021/09/30 08:52:08;;;;;;;5.85;3.10;;;;;;;11.13;45.63;101649.34;1762158;79;22469;-79
2021/09/30 08:55:15;;;;;;;8.88;2.80;;;;;;;11.12;45.78;101641.63;1768375;79;21319;-77
2021/09/30 08:58:23;;;;;;;3.67;2.52;;;;;;;11.24;43.54;101659.63;1767272;79;21887;-78
2021/09/30 09:01:30;;;;;;;3.20;2.22;;;;;;;11.30;41.85;101655.94;1758117;80;21213;-78
2021/09/30 09:04:35;;;;;;;3.37;2.50;;;;;;;11.27;41.58;101646.13;1765231;81;21819;-78
2021/09/30 09:07:41;;;;;;;4.72;2.27;;;;;;;11.28;41.34;101646.99;1760269;80;21196;-77
2021/09/30 09:10:49;;;;;;;5.65;2.90;;;;;;;11.32;42.01;101647.91;1764761;79;21184;-77
2021/09/30 09:13:55;;;;;;;4.80;2.72;;;;;;;11.40;42.36;101656.26;1759246;79;21180;-78
2021/09/30 09:17:13;;;;;;;9.35;2.67;;;;;;;11.45;41.35;101634.75;1720774;79;21145;-78
2021/09/30 09:20:19;;;;;;;5.00;2.67;;;;;;;11.50;41.31;101642.02;1761233;79;21162;-79
2021/09/30 09:23:25;;;;;;;7.08;2.70;;;;;;;11.55;41.03;101631.97;1760855;79;21146;-78
2021/09/30 09:26:42;;;;;;;3.10;2.30;;;;;;;11.57;41.67;101620.85;1762848;79;21284;-78
2021/09/30 09:29:49;;;;;;;7.50;2.70;;;;;;;11.63;41.48;101635.34;1763983;79;21268;-78
2021/09/30 09:33:23;;;;;;;4.67;2.80;;;;;;;11.69;41.24;101627.37;1762944;79;21283;-80
2021/09/30 09:36:30;;;;;;;7.45;3.15;;;;;;;11.73;41.06;101616.97;1774349;79;21255;-80
2021/09/30 09:39:43;;;;;;;6.20;3.12;;;;;;;11.76;41.58;101612.53;1767768;79;21155;-81
2021/09/30 09:42:51;;;;;;;6.12;3.10;;;;;;;11.79;41.04;101617.72;1762159;79;21173;-79
2021/09/30 09:45:58;;;;;;;5.60;2.70;;;;;;;11.83;41.93;101621.06;1765658;79;21256;-78
2021/09/30 09:49:19;;;;;;;5.15;3.15;;;;;;;11.89;40.82;101620.44;1766358;79;21280;-77
2021/09/30 09:52:24;;;;;;;6.40;3.40;;;;;;;11.87;41.03;101619.75;1763467;79;21307;-77
2021/09/30 09:55:44;;;;;;;7.20;3.72;;;;;;;11.89;40.83;101618.55;1760184;79;21130;-77
2021/09/30 09:59:04;;;;;;;11.03;3.47;;;;;;;11.86;40.20;101627.11;1764731;79;21145;-77
2021/09/30 10:02:11;;;;;;;6.28;3.50;;;;;;;11.96;40.73;101616.09;1759993;79;21150;-77
2021/09/30 10:05:18;;;;;;;6.28;3.37;;;;;;;12.00;41.25;101590.95;1776893;79;21330;-77
2021/09/30 10:08:24;;;;;;;5.60;3.08;;;;;;;11.99;41.39;101613.02;1779488;79;21280;-77
2021/09/30 10:11:29;;;;;;;5.97;3.33;;;;;;;11.97;41.47;101609.06;1776949;79;21310;-77
2021/09/30 10:14:37;;;;;;;8.70;3.58;;;;;;;12.03;42.04;101598.84;1775008;79;21287;-77
2021/09/30 10:17:43;;;;;;;4.87;3.10;;;;;;;12.12;41.25;101597.56;1775871;79;21313;-79
2021/09/30 10:20:49;;;;;;;7.30;3.27;;;;;;;12.30;40.85;101594.84;1775101;79;21219;-79
2021/09/30 10:24:01;;;;;;;9.75;3.10;;;;;;;12.42;40.26;101594.46;1783903;79;21664;-78
2021/09/30 10:27:08;;;;;;;8.98;3.12;;;;;;;12.51;40.08;101588.03;1786998;79;21191;-78
2021/09/30 10:30:15;;;;;;;4.72;2.90;;;;;;;12.57;39.81;101598.02;1779242;79;21825;-78
2021/09/30 10:33:23;;;;;;;3.52;2.50;;;;;;;12.52;39.63;101594.38;1763471;79;21216;-79
2021/09/30 10:36:51;;;;;;;12.50;3.00;;;;;;;12.49;40.09;101587.30;1774919;79;21331;-79
2021/09/30 10:40:23;;;;;;;9.43;3.37;;;;;;;12.59;39.51;101594.59;1781890;79;21262;-79
2021/09/30 10:43:32;;;;;;;5.08;3.05;;;;;;;12.64;39.46;101598.58;1782197;79;21259;-79
2021/09/30 10:46:45;;;;;;;6.45;3.10;;;;;;;12.68;38.95;101593.13;1776860;79;21263;-79
2021/09/30 10:49:55;;;;;;;5.55;3.00;;;;;;;12.69;38.96;101603.08;1793182;79;21318;-79
2021/09/30 10:53:02;;;;;;;3.95;2.45;;;;;;;12.69;39.02;101588.49;1749640;79;21306;-79
2021/09/30 10:56:12;;;;;;;7.30;2.87;;;;;;;12.70;39.08;101588.36;1779323;79;21891;-79
2021/09/30 10:59:21;;;;;;;6.15;3.00;;;;;;;12.77;39.02;101583.94;1768008;79;21287;-79
2021/09/30 11:02:27;;;;;;;3.22;2.72;;;;;;;12.90;38.59;101579.41;1782298;79;21295;-79
2021/09/30 11:05:32;;;;;;;5.87;3.30;;;;;;;12.98;38.54;101581.33;1776638;79;21335;-77
2021/09/30 11:08:48;;;;;;;15.98;3.17;;;;;;;13.02;37.35;101572.61;1778457;79;21197;-76
2021/09/30 11:11:57;;;;;;;9.05;3.55;;;;;;;13.03;37.49;101577.10;1779713;79;21137;-77
2021/09/30 11:15:02;;;;;;;8.48;3.30;;;;;;;13.08;37.28;101573.88;1777082;79;21283;-77
2021/09/30 11:18:07;;;;;;;6.05;3.02;;;;;;;13.12;37.00;101571.63;1767831;79;21531;-78
2021/09/30 11:21:38;;;;;;;8.18;3.37;;;;;;;13.15;37.08;101572.18;1731609;81;21268;-78
2021/09/30 11:24:59;;;;;;;7.47;3.27;;;;;;;13.12;36.93;101565.63;1706704;82;21334;-79
2021/09/30 11:28:19;;;;;;;5.70;2.75;;;;;;;13.05;37.00;101566.80;1715383;82;21272;-78
2021/09/30 11:31:37;;;;;;;16.95;3.45;;;;;;;13.04;36.66;101569.20;1714784;82;21512;-77
2021/09/30 11:34:56;;;;;;;14.55;3.27;;;;;;;13.04;37.19;101565.08;1735099;81;21795;-79
2021/09/30 11:38:01;;;;;;;11.43;2.75;;;;;;;13.04;36.85;101566.97;1677662;83;21344;-79
2021/09/30 11:41:07;;;;;;;13.35;3.22;;;;;;;13.07;37.27;101576.75;1705137;83;21777;-79
2021/09/30 11:44:14;;;;;;;4.35;2.55;;;;;;;13.14;37.14;101562.73;1727638;82;21914;-77
2021/09/30 11:47:20;;;;;;;8.00;3.00;;;;;;;13.24;36.00;101566.26;1692220;83;21371;-78
2021/09/30 11:50:31;;;;;;;5.17;3.05;;;;;;;13.28;36.32;101564.39;1718766;82;21907;-77
2021/09/30 11:53:36;;;;;;;5.22;2.58;;;;;;;13.32;36.86;101552.57;1718810;82;21303;-78
2021/09/30 11:56:53;;;;;;;7.75;2.58;;;;;;;13.40;36.84;101558.08;1719318;82;21370;-78
2021/09/30 11:59:58;;;;;;;6.50;2.67;;;;;;;13.42;37.06;101556.05;1718387;82;21284;-78
2021/09/30 12:03:12;;;;;;;7.10;2.83;;;;;;;13.50;36.17;101554.72;1717219;82;21312;-78
2021/09/30 12:06:17;;;;;;;12.65;2.90;;;;;;;13.61;35.33;101555.44;1717633;83;22362;-78
2021/09/30 12:09:25;;;;;;;3.80;2.50;;;;;;;13.68;35.23;101550.47;1685500;84;21327;-78
2021/09/30 12:12:40;;;;;;;12.37;3.00;;;;;;;13.68;34.88;101542.73;1756504;80;21327;-78
2021/09/30 12:15:46;;;;;;;14.87;3.55;;;;;;;13.62;34.42;101536.54;1760124;81;21416;-78
2021/09/30 12:18:52;;;;;;;12.30;2.75;;;;;;;13.56;35.18;101533.95;1744573;81;21213;-78
2021/09/30 12:21:56;;;;;;;5.12;2.72;;;;;;;13.57;35.81;101532.05;1765188;81;21288;-76
2021/09/30 12:25:11;;;;;;;3.70;2.37;;;;;;;13.59;36.37;101510.23;1764772;81;21780;-77
2021/09/30 12:28:17;;;;;;;13.08;2.58;;;;;;;13.64;35.81;101527.59;1762525;81;21307;-77
2021/09/30 12:31:25;;;;;;;4.72;2.62;;;;;;;13.62;35.62;101533.79;1753643;80;21717;-77
2021/09/30 12:34:34;;;;;;;6.53;2.42;;;;;;;13.58;35.72;101522.78;1753443;80;21374;-78
2021/09/30 12:37:45;;;;;;;;;;;;;;;13.58;34.97;101524.16;1759604;81;21602;-78
2021/09/30 12:40:56;;;;;;;7.05;2.85;;;;;;;13.59;35.31;101535.48;1758427;81;20320;-79
2021/09/30 12:44:07;;;;;;;5.85;2.72;;;;;;;13.62;35.09;101525.55;1759865;81;21335;-78
2021/09/30 12:47:12;;;;;;;10.48;2.70;;;;;;;13.61;35.14;101532.94;1762227;81;21680;-79
2021/09/30 12:50:22;;;;;;;3.98;2.47;;;;;;;13.58;35.40;101524.16;1751139;79;21331;-77
2021/09/30 12:53:28;;;;;;;3.90;2.50;;;;;;;13.54;35.59;101529.97;1762602;81;21308;-78
2021/09/30 12:56:40;;;;;;;4.37;2.50;;;;;;;13.55;34.35;101523.47;1758805;81;21289;-78
2021/09/30 12:59:46;;;;;;;7.22;3.00;;;;;;;13.52;34.91;101512.80;1761826;81;21311;-76
2021/09/30 13:02:58;;;;;;;4.58;2.70;;;;;;;13.53;35.36;101515.03;1761149;81;21753;-78
2021/09/30 13:06:04;;;;;;;5.30;2.77;;;;;;;13.53;35.31;101513.14;1760715;80;21354;-78
2021/09/30 13:09:11;;;;;;;10.55;3.05;;;;;;;13.52;35.29;101520.19;1780507;80;21276;-78
2021/09/30 13:12:24;;;;;;;9.18;2.92;;;;;;;13.49;35.11;101513.12;1770186;80;21306;-78
2021/09/30 13:15:41;;;;;;;10.55;2.87;;;;;;;13.51;35.37;101519.33;1769878;80;21161;-77
2021/09/30 13:18:56;;;;;;;4.80;2.58;;;;;;;13.52;35.30;101518.30;1759099;80;21728;-77
2021/09/30 13:22:11;;;;;;;9.13;3.02;;;;;;;13.52;35.00;101516.92;1769041;80;21169;-77
2021/09/30 13:25:26;;;;;;;8.40;2.75;;;;;;;13.46;35.33;101523.61;1775098;79;21692;-77
2021/09/30 13:28:33;;;;;;;8.93;2.65;;;;;;;13.43;35.71;101511.05;1781124;80;21815;-78
2021/09/30 13:31:39;;;;;;;8.00;3.08;;;;;;;13.43;36.00;101515.16;1777720;80;21699;-79
2021/09/30 13:34:43;;;;;;;10.00;2.72;;;;;;;13.42;35.51;101512.08;1766263;80;21656;-79
2021/09/30 13:37:49;;;;;;;5.62;2.77;;;;;;;13.42;35.30;101508.47;1780619;80;21252;-79
2021/09/30 13:40:53;;;;;;;7.55;2.87;;;;;;;13.39;34.71;101502.78;1780513;80;22222;-79
2021/09/30 13:43:58;;;;;;;10.10;2.77;;;;;;;13.39;34.93;101503.30;1778358;80;21811;-79
2021/09/30 13:47:04;;;;;;;4.08;2.60;;;;;;;13.37;34.93;101499.34;1768642;80;21291;-78
2021/09/30 13:50:14;;;;;;;15.05;2.77;;;;;;;13.34;34.71;101507.91;1778335;80;21201;-79
2021/09/30 13:53:21;;;;;;;5.03;2.50;;;;;;;13.33;34.49;101503.45;1780187;80;21266;-79
2021/09/30 13:56:26;;;;;;;4.83;2.35;;;;;;;13.31;34.51;101502.73;1767373;80;21216;-79
2021/09/30 13:59:34;;;;;;;8.58;2.83;;;;;;;13.29;34.18;101496.56;1762860;80;21744;-78
2021/09/30 14:02:41;;;;;;;4.65;2.58;;;;;;;13.28;34.34;101514.94;1776653;80;21211;-78
2021/09/30 14:05:48;;;;;;;3.87;2.67;;;;;;;13.25;34.50;101500.14;1746307;82;21212;-78
2021/09/30 14:08:55;;;;;;;6.03;2.83;;;;;;;13.22;34.62;101495.00;1745927;82;21334;-78
2021/09/30 14:12:01;;;;;;;6.45;2.95;;;;;;;13.17;34.30;101500.58;1763531;81;21975;-78
2021/09/30 14:15:08;;;;;;;7.53;3.20;;;;;;;13.14;34.51;101494.06;1766876;81;21829;-78
2021/09/30 14:18:14;;;;;;;7.40;3.58;;;;;;;13.10;34.70;101494.03;1767344;81;21260;-78
2021/09/30 14:21:20;;;;;;;9.90;3.67;;;;;;;13.04;35.22;101497.79;1768105;81;21427;-78
2021/09/30 14:24:27;;;;;;;8.05;3.65;;;;;;;12.99;35.23;101505.66;1768709;80;21228;-78
2021/09/30 14:27:31;;;;;;;7.67;2.95;;;;;;;12.95;35.35;101500.14;1752332;82;21181;-78
2021/09/30 14:30:37;;;;;;;6.85;3.15;;;;;;;12.92;35.69;101494.11;1752644;82;21307;-78
2021/09/30 14:33:44;;;;;;;10.45;3.20;;;;;;;12.88;36.25;101497.69;1751303;82;22589;-77
2021/09/30 14:36:50;;;;;;;10.90;3.22;;;;;;;12.83;36.29;101496.45;1752083;82;21205;-77
2021/09/30 14:39:56;;;;;;;10.72;3.05;;;;;;;12.79;36.52;101494.53;1753198;82;21153;-77
2021/09/30 14:43:02;;;;;;;6.92;3.08;;;;;;;12.74;36.50;101496.91;1752274;82;21338;-77
2021/09/30 14:46:09;;;;;;;26.10;3.50;;;;;;;12.68;36.66;101508.03;1752176;82;21303;-77
2021/09/30 14:49:16;;;;;;;25.77;3.45;;;;;;;12.61;36.98;101500.59;1752245;82;21223;-78
2021/09/30 14:52:24;;;;;;;16.30;3.47;;;;;;;12.51;37.14;101497.95;1750868;82;21382;-78
2021/09/30 14:55:29;;;;;;;11.70;3.72;;;;;;;12.43;37.13;101501.52;1752373;82;21851;-78
2021/09/30 14:58:35;;;;;;;10.63;3.52;;;;;;;12.36;37.29;101514.13;1752248;82;21735;-78
2021/09/30 15:01:41;;;;;;;8.30;3.65;;;;;;;12.29;37.58;101506.20;1751113;82;21212;-78
2021/09/30 15:04:48;;;;;;;10.50;3.00;;;;;;;12.22;37.94;101510.58;1750953;82;21371;-77
2021/09/30 15:07:53;;;;;;;13.22;3.08;;;;;;;12.14;37.75;101507.75;1752188;82;21890;-78
2021/09/30 15:11:00;;;;;;;5.90;2.95;;;;;;;12.05;37.87;101510.09;1713364;83;21312;-78
2021/09/30 15:13:59;;;;;;;22.20;3.62;;;;;;;11.97;38.06;101508.98;1713372;83;21865;-78
2021/09/30 15:23:43;;;;;;;34.53;13.50;;;;;;;11.68;39.30;101511.05;1714759;83;21335;-77
2021/09/30 15:26:49;;;;;;;21.90;8.83;;;;;;;11.56;39.76;101512.27;1714809;83;21878;-78
2021/09/30 15:29:55;;;;;;;47.67;9.05;;;;;;;11.45;40.17;101513.34;1714672;83;21290;-78
2021/09/30 15:33:03;;;;;;;27.80;8.60;;;;;;;11.36;40.54;101511.02;1714598;83;21188;-77
2021/09/30 15:36:12;;;;;;;28.12;8.28;;;;;;;11.26;40.91;101522.53;1714622;83;21306;-77
2021/09/30 15:39:17;;;;;;;39.27;7.25;;;;;;;11.16;41.22;101514.87;1714672;83;21291;-78
2021/09/30 15:42:24;;;;;;;17.98;4.92;;;;;;;11.06;41.50;101516.79;1716205;83;22580;-77
2021/09/30 15:45:29;;;;;;;16.87;4.28;;;;;;;10.98;41.78;101521.63;1716083;83;21306;-77
2021/09/30 15:48:35;;;;;;;16.25;4.20;;;;;;;10.90;42.10;101521.51;1712690;82;21327;-77
2021/09/30 15:51:42;;;;;;;15.35;3.62;;;;;;;10.80;42.32;101516.06;1711045;84;21894;-78
2021/09/30 15:54:47;;;;;;;8.55;3.90;;;;;;;10.70;42.78;101523.45;1711143;84;21291;-77
2021/09/30 15:57:52;;;;;;;9.03;4.17;;;;;;;10.60;43.11;101522.61;1711394;84;21271;-77
2021/09/30 16:00:59;;;;;;;9.50;6.15;;;;;;;10.49;43.55;101527.23;1711368;84;21228;-78
2021/09/30 16:04:04;;;;;;;16.87;8.45;;;;;;;10.38;44.06;101530.11;1710386;84;21387;-77
2021/09/30 16:07:11;;;;;;;25.80;12.15;;;;;;;10.30;44.28;101529.97;1710416;84;21331;-77
2021/09/30 16:10:17;;;;;;;33.20;17.82;;;;;;;10.22;44.59;101538.02;1723015;82;21300;-77
2021/09/30 16:13:22;;;;;;;34.85;18.27;;;;;;;10.13;44.93;101537.01;1735782;82;21263;-78
2021/09/30 16:16:27;;;;;;;33.83;15.60;;;;;;;10.06;45.15;101537.71;1735106;82;21315;-78
2021/09/30 16:19:34;;;;;;;23.70;13.38;;;;;;;10.01;45.31;101537.28;1733535;82;22542;-78
2021/09/30 16:22:39;;;;;;;21.87;8.90;;;;;;;9.94;45.50;101550.16;1734217;82;21330;-77
2021/09/30 16:25:45;;;;;;;17.90;6.17;;;;;;;9.88;45.72;101548.48;1733502;82;21830;-78
2021/09/30 16:28:57;;;;;;;12.90;4.85;;;;;;;9.80;45.98;101545.61;1734869;82;21181;-78
2021/09/30 16:32:02;;;;;;;20.37;4.47;;;;;;;9.76;46.30;101552.36;1734721;82;21307;-78
2021/09/30 16:35:09;;;;;;;10.05;3.27;;;;;;;9.69;46.49;101550.67;1734114;82;21830;-78
2021/09/30 16:38:18;;;;;;;8.70;3.92;;;;;;;9.63;46.87;101552.61;1734067;82;21223;-78
2021/09/30 16:41:23;;;;;;;5.33;3.40;;;;;;;9.55;47.06;101560.16;1734897;82;21835;-77
2021/09/30 16:44:29;;;;;;;11.10;4.30;;;;;;;9.48;47.44;101555.73;1733478;82;21217;-78
2021/09/30 16:47:37;;;;;;;11.85;3.50;;;;;;;9.41;47.75;101560.04;1734696;82;21363;-78
2021/09/30 16:50:41;;;;;;;7.28;4.35;;;;;;;9.35;48.13;101562.44;1734887;82;21335;-78
2021/09/30 16:53:48;;;;;;;14.73;4.80;;;;;;;9.30;48.39;101561.48;1734213;82;21217;-78
2021/09/30 16:56:54;;;;;;;7.22;4.10;;;;;;;9.24;48.56;101555.73;1733418;82;21197;-78
2021/09/30 16:59:59;;;;;;;6.28;4.33;;;;;;;9.21;48.80;101565.91;1733314;82;21836;-78
2021/09/30 17:03:06;;;;;;;10.40;4.40;;;;;;;9.17;49.02;101567.20;1733327;82;21185;-78
2021/09/30 17:06:12;;;;;;;7.92;4.28;;;;;;;9.16;49.33;101567.32;1733421;82;21815;-78
2021/09/30 17:09:18;;;;;;;10.88;5.08;;;;;;;9.13;49.37;101566.25;1733271;82;21216;-78
2021/09/30 17:12:26;;;;;;;24.30;4.67;;;;;;;9.10;49.59;101561.91;1734157;82;21326;-78
2021/09/30 17:15:35;;;;;;;6.72;4.25;;;;;;;9.08;49.75;101565.77;1734345;82;21312;-78